sensor_id;sensor_type;location;lat;lon;timestamp;temperature;humidity
38606;DHT22;24365;48.446;8.850;2023-11-18T00:04:28;4.40;82.30
38606;DHT22;24365;48.446;8.850;2023-11-18T00:09:29;4.40;82.00
38606;DHT22;24365;48.446;8.850;2023-11-18T00:14:30;4.40;82.00
38606;DHT22;24365;48.446;8.850;2023-11-18T00:19:31;4.30;82.20
38606;DHT22;24365;48.446;8.850;2023-11-18T00:24:31;4.40;82.10
38606;DHT22;24365;48.446;8.850;2023-11-18T00:29:35;4.30;82.20
38606;DHT22;24365;48.446;8.850;2023-11-18T00:34:36;4.30;82.50
38606;DHT22;24365;48.446;8.850;2023-11-18T00:39:37;4.30;82.50
38606;DHT22;24365;48.446;8.850;2023-11-18T00:44:37;4.30;82.70
38606;DHT22;24365;48.446;8.850;2023-11-18T00:49:38;4.30;82.50
38606;DHT22;24365;48.446;8.850;2023-11-18T00:54:40;4.30;82.80
38606;DHT22;24365;48.446;8.850;2023-11-18T00:59:43;4.30;82.80
38606;DHT22;24365;48.446;8.850;2023-11-18T01:04:44;4.30;82.70
38606;DHT22;24365;48.446;8.850;2023-11-18T01:09:46;4.30;82.80
38606;DHT22;24365;48.446;8.850;2023-11-18T01:14:47;4.40;83.00
38606;DHT22;24365;48.446;8.850;2023-11-18T01:19:48;4.30;82.80
38606;DHT22;24365;48.446;8.850;2023-11-18T01:24:49;4.30;82.80
38606;DHT22;24365;48.446;8.850;2023-11-18T01:29:51;4.30;82.90
38606;DHT22;24365;48.446;8.850;2023-11-18T01:34:53;4.30;82.90
38606;DHT22;24365;48.446;8.850;2023-11-18T01:39:54;4.30;82.70
38606;DHT22;24365;48.446;8.850;2023-11-18T01:44:55;4.30;82.70
38606;DHT22;24365;48.446;8.850;2023-11-18T01:49:56;4.30;83.00
38606;DHT22;24365;48.446;8.850;2023-11-18T01:54:58;4.30;83.00
38606;DHT22;24365;48.446;8.850;2023-11-18T02:00:00;4.30;82.70
38606;DHT22;24365;48.446;8.850;2023-11-18T02:05:02;4.30;82.70
38606;DHT22;24365;48.446;8.850;2023-11-18T02:10:03;4.20;82.50
38606;DHT22;24365;48.446;8.850;2023-11-18T02:15:04;4.30;82.50
38606;DHT22;24365;48.446;8.850;2023-11-18T02:20:10;4.30;82.50
38606;DHT22;24365;48.446;8.850;2023-11-18T02:25:16;4.20;82.40
38606;DHT22;24365;48.446;8.850;2023-11-18T02:30:18;4.20;82.60
38606;DHT22;24365;48.446;8.850;2023-11-18T02:35:32;4.20;82.70
38606;DHT22;24365;48.446;8.850;2023-11-18T02:40:36;4.10;82.30
38606;DHT22;24365;48.446;8.850;2023-11-18T02:45:38;4.10;81.90
38606;DHT22;24365;48.446;8.850;2023-11-18T02:50:40;4.10;81.70
38606;DHT22;24365;48.446;8.850;2023-11-18T02:55:44;4.00;82.20
38606;DHT22;24365;48.446;8.850;2023-11-18T03:00:44;4.00;82.00
38606;DHT22;24365;48.446;8.850;2023-11-18T03:05:45;3.90;82.00
38606;DHT22;24365;48.446;8.850;2023-11-18T03:10:49;3.90;81.70
38606;DHT22;24365;48.446;8.850;2023-11-18T03:15:53;3.90;81.50
38606;DHT22;24365;48.446;8.850;2023-11-18T03:20:54;3.90;81.60
38606;DHT22;24365;48.446;8.850;2023-11-18T03:25:55;3.90;81.40
38606;DHT22;24365;48.446;8.850;2023-11-18T03:30:57;3.80;81.20
38606;DHT22;24365;48.446;8.850;2023-11-18T03:35:58;3.80;81.60
38606;DHT22;24365;48.446;8.850;2023-11-18T03:40:59;3.70;81.20
38606;DHT22;24365;48.446;8.850;2023-11-18T03:46:00;3.80;81.40
38606;DHT22;24365;48.446;8.850;2023-11-18T03:51:01;3.70;81.60
38606;DHT22;24365;48.446;8.850;2023-11-18T03:56:02;3.70;81.90
38606;DHT22;24365;48.446;8.850;2023-11-18T04:01:03;3.70;82.00
38606;DHT22;24365;48.446;8.850;2023-11-18T04:06:04;3.70;81.80
38606;DHT22;24365;48.446;8.850;2023-11-18T04:11:06;3.70;81.60
38606;DHT22;24365;48.446;8.850;2023-11-18T04:16:09;3.60;81.90
38606;DHT22;24365;48.446;8.850;2023-11-18T04:21:10;3.60;82.20
38606;DHT22;24365;48.446;8.850;2023-11-18T04:26:11;3.60;82.00
38606;DHT22;24365;48.446;8.850;2023-11-18T04:31:12;3.50;81.80
38606;DHT22;24365;48.446;8.850;2023-11-18T04:36:13;3.50;83.00
38606;DHT22;24365;48.446;8.850;2023-11-18T04:41:16;3.50;83.00
38606;DHT22;24365;48.446;8.850;2023-11-18T04:46:17;3.60;82.80
38606;DHT22;24365;48.446;8.850;2023-11-18T04:51:18;3.50;82.50
38606;DHT22;24365;48.446;8.850;2023-11-18T04:56:19;3.50;82.80
38606;DHT22;24365;48.446;8.850;2023-11-18T05:01:19;3.60;82.70
38606;DHT22;24365;48.446;8.850;2023-11-18T05:06:20;3.60;82.20
38606;DHT22;24365;48.446;8.850;2023-11-18T05:11:21;3.60;81.90
38606;DHT22;24365;48.446;8.850;2023-11-18T05:16:22;3.60;81.60
38606;DHT22;24365;48.446;8.850;2023-11-18T05:21:23;3.60;81.50
38606;DHT22;24365;48.446;8.850;2023-11-18T05:26:24;3.60;81.60
38606;DHT22;24365;48.446;8.850;2023-11-18T05:31:25;3.50;81.30
38606;DHT22;24365;48.446;8.850;2023-11-18T05:36:25;3.60;81.30
38606;DHT22;24365;48.446;8.850;2023-11-18T05:41:37;3.50;81.20
38606;DHT22;24365;48.446;8.850;2023-11-18T05:46:40;3.50;81.20
38606;DHT22;24365;48.446;8.850;2023-11-18T05:51:41;3.40;80.70
38606;DHT22;24365;48.446;8.850;2023-11-18T05:56:42;3.40;80.80
38606;DHT22;24365;48.446;8.850;2023-11-18T06:01:43;3.40;81.00
38606;DHT22;24365;48.446;8.850;2023-11-18T06:06:43;3.40;80.70
38606;DHT22;24365;48.446;8.850;2023-11-18T06:11:44;3.30;80.50
38606;DHT22;24365;48.446;8.850;2023-11-18T06:16:46;3.30;80.50
38606;DHT22;24365;48.446;8.850;2023-11-18T06:21:48;3.20;80.30
38606;DHT22;24365;48.446;8.850;2023-11-18T06:26:50;3.10;80.40
38606;DHT22;24365;48.446;8.850;2023-11-18T06:31:51;3.10;81.00
38606;DHT22;24365;48.446;8.850;2023-11-18T06:36:53;3.00;80.30
38606;DHT22;24365;48.446;8.850;2023-11-18T06:41:56;3.00;81.30
38606;DHT22;24365;48.446;8.850;2023-11-18T06:46:57;3.00;81.40
38606;DHT22;24365;48.446;8.850;2023-11-18T06:51:58;3.00;81.10
38606;DHT22;24365;48.446;8.850;2023-11-18T06:56:59;3.00;81.10
38606;DHT22;24365;48.446;8.850;2023-11-18T07:02:00;3.00;81.30
38606;DHT22;24365;48.446;8.850;2023-11-18T07:07:00;3.00;81.10
38606;DHT22;24365;48.446;8.850;2023-11-18T07:12:02;3.00;80.10
38606;DHT22;24365;48.446;8.850;2023-11-18T07:17:04;2.90;80.50
38606;DHT22;24365;48.446;8.850;2023-11-18T07:22:05;2.80;81.00
38606;DHT22;24365;48.446;8.850;2023-11-18T07:27:07;2.80;81.10
38606;DHT22;24365;48.446;8.850;2023-11-18T07:32:11;2.80;81.10
38606;DHT22;24365;48.446;8.850;2023-11-18T07:37:12;2.80;81.70
38606;DHT22;24365;48.446;8.850;2023-11-18T07:42:13;2.90;81.70
38606;DHT22;24365;48.446;8.850;2023-11-18T07:47:15;2.90;81.60
38606;DHT22;24365;48.446;8.850;2023-11-18T07:52:16;2.90;81.30
38606;DHT22;24365;48.446;8.850;2023-11-18T07:57:18;3.00;81.70
38606;DHT22;24365;48.446;8.850;2023-11-18T08:02:19;2.90;81.90
38606;DHT22;24365;48.446;8.850;2023-11-18T08:07:20;2.90;82.40
38606;DHT22;24365;48.446;8.850;2023-11-18T08:12:21;3.00;82.40
38606;DHT22;24365;48.446;8.850;2023-11-18T08:17:22;3.00;82.50
38606;DHT22;24365;48.446;8.850;2023-11-18T08:22:23;3.00;82.70
38606;DHT22;24365;48.446;8.850;2023-11-18T08:27:24;3.10;83.00
38606;DHT22;24365;48.446;8.850;2023-11-18T08:32:25;3.20;83.10
38606;DHT22;24365;48.446;8.850;2023-11-18T08:37:26;3.20;83.30
38606;DHT22;24365;48.446;8.850;2023-11-18T08:42:28;3.30;84.10
38606;DHT22;24365;48.446;8.850;2023-11-18T08:47:30;3.40;84.00
38606;DHT22;24365;48.446;8.850;2023-11-18T08:52:32;3.50;84.30
38606;DHT22;24365;48.446;8.850;2023-11-18T08:57:34;3.60;83.70
38606;DHT22;24365;48.446;8.850;2023-11-18T09:02:48;3.70;83.80
38606;DHT22;24365;48.446;8.850;2023-11-18T09:07:49;3.80;83.60
38606;DHT22;24365;48.446;8.850;2023-11-18T09:12:51;3.90;83.10
38606;DHT22;24365;48.446;8.850;2023-11-18T09:17:53;4.10;83.40
38606;DHT22;24365;48.446;8.850;2023-11-18T09:22:54;4.20;83.20
38606;DHT22;24365;48.446;8.850;2023-11-18T09:27:56;4.40;82.40
38606;DHT22;24365;48.446;8.850;2023-11-18T09:32:57;4.60;83.00
38606;DHT22;24365;48.446;8.850;2023-11-18T09:38:03;4.70;81.00
38606;DHT22;24365;48.446;8.850;2023-11-18T09:43:06;4.80;81.30
38606;DHT22;24365;48.446;8.850;2023-11-18T09:48:09;4.80;83.20
38606;DHT22;24365;48.446;8.850;2023-11-18T09:53:11;4.90;82.10
38606;DHT22;24365;48.446;8.850;2023-11-18T09:58:15;5.00;82.40
38606;DHT22;24365;48.446;8.850;2023-11-18T10:03:16;5.10;82.50
38606;DHT22;24365;48.446;8.850;2023-11-18T10:08:17;5.30;82.80
38606;DHT22;24365;48.446;8.850;2023-11-18T10:13:18;5.40;81.80
38606;DHT22;24365;48.446;8.850;2023-11-18T10:18:23;5.50;80.50
38606;DHT22;24365;48.446;8.850;2023-11-18T10:23:24;5.70;80.20
38606;DHT22;24365;48.446;8.850;2023-11-18T10:33:29;6.00;78.90
38606;DHT22;24365;48.446;8.850;2023-11-18T10:38:32;6.30;78.90
38606;DHT22;24365;48.446;8.850;2023-11-18T10:43:37;6.50;78.30
38606;DHT22;24365;48.446;8.850;2023-11-18T10:48:39;6.60;76.90
38606;DHT22;24365;48.446;8.850;2023-11-18T10:53:42;6.80;76.40
38606;DHT22;24365;48.446;8.850;2023-11-18T10:58:55;7.00;77.10
38606;DHT22;24365;48.446;8.850;2023-11-18T11:03:56;7.10;74.00
38606;DHT22;24365;48.446;8.850;2023-11-18T11:08:57;7.00;72.00
38606;DHT22;24365;48.446;8.850;2023-11-18T11:14:00;7.00;72.00
38606;DHT22;24365;48.446;8.850;2023-11-18T11:19:03;7.00;71.70
38606;DHT22;24365;48.446;8.850;2023-11-18T11:24:17;7.10;72.20
38606;DHT22;24365;48.446;8.850;2023-11-18T11:29:48;7.30;72.20
38606;DHT22;24365;48.446;8.850;2023-11-18T11:34:53;7.30;72.60
38606;DHT22;24365;48.446;8.850;2023-11-18T11:39:54;7.40;72.10
38606;DHT22;24365;48.446;8.850;2023-11-18T11:44:58;7.50;71.90
38606;DHT22;24365;48.446;8.850;2023-11-18T11:50:02;7.60;72.80
38606;DHT22;24365;48.446;8.850;2023-11-18T12:00:29;7.60;72.70
38606;DHT22;24365;48.446;8.850;2023-11-18T12:05:35;7.60;72.90
38606;DHT22;24365;48.446;8.850;2023-11-18T12:10:50;7.60;72.60
38606;DHT22;24365;48.446;8.850;2023-11-18T12:15:53;7.60;72.50
38606;DHT22;24365;48.446;8.850;2023-11-18T12:20:54;7.60;72.50
38606;DHT22;24365;48.446;8.850;2023-11-18T12:25:57;7.50;73.60
38606;DHT22;24365;48.446;8.850;2023-11-18T12:30:58;7.50;73.40
38606;DHT22;24365;48.446;8.850;2023-11-18T12:36:17;7.40;73.60
38606;DHT22;24365;48.446;8.850;2023-11-18T12:41:36;7.30;74.10
38606;DHT22;24365;48.446;8.850;2023-11-18T12:51:50;7.30;75.90
38606;DHT22;24365;48.446;8.850;2023-11-18T12:56:54;7.30;76.60
38606;DHT22;24365;48.446;8.850;2023-11-18T13:01:55;7.30;76.20
38606;DHT22;24365;48.446;8.850;2023-11-18T13:06:57;7.30;76.70
38606;DHT22;24365;48.446;8.850;2023-11-18T13:12:02;7.30;76.30
38606;DHT22;24365;48.446;8.850;2023-11-18T13:17:10;7.30;76.70
38606;DHT22;24365;48.446;8.850;2023-11-18T13:22:16;7.40;76.90
38606;DHT22;24365;48.446;8.850;2023-11-18T13:27:19;7.30;76.60
38606;DHT22;24365;48.446;8.850;2023-11-18T13:32:21;7.30;76.20
38606;DHT22;24365;48.446;8.850;2023-11-18T13:37:26;7.30;76.50
38606;DHT22;24365;48.446;8.850;2023-11-18T13:42:27;7.20;76.70
38606;DHT22;24365;48.446;8.850;2023-11-18T13:47:29;7.20;75.40
38606;DHT22;24365;48.446;8.850;2023-11-18T13:52:30;7.10;74.50
38606;DHT22;24365;48.446;8.850;2023-11-18T13:57:32;7.10;73.80
38606;DHT22;24365;48.446;8.850;2023-11-18T14:02:33;7.00;74.00
38606;DHT22;24365;48.446;8.850;2023-11-18T14:07:37;7.10;74.30
38606;DHT22;24365;48.446;8.850;2023-11-18T14:12:39;7.10;74.70
38606;DHT22;24365;48.446;8.850;2023-11-18T14:17:40;7.10;75.10
38606;DHT22;24365;48.446;8.850;2023-11-18T14:22:41;7.10;75.50
38606;DHT22;24365;48.446;8.850;2023-11-18T14:27:43;7.10;75.50
38606;DHT22;24365;48.446;8.850;2023-11-18T14:32:44;7.10;75.60
38606;DHT22;24365;48.446;8.850;2023-11-18T14:37:45;7.10;77.40
38606;DHT22;24365;48.446;8.850;2023-11-18T14:42:46;7.10;75.80
38606;DHT22;24365;48.446;8.850;2023-11-18T14:47:48;7.10;74.20
38606;DHT22;24365;48.446;8.850;2023-11-18T14:52:50;7.10;75.20
38606;DHT22;24365;48.446;8.850;2023-11-18T14:57:59;7.20;74.60
38606;DHT22;24365;48.446;8.850;2023-11-18T15:03:00;7.20;75.60
38606;DHT22;24365;48.446;8.850;2023-11-18T15:08:01;7.10;75.50
38606;DHT22;24365;48.446;8.850;2023-11-18T15:13:02;7.10;76.20
38606;DHT22;24365;48.446;8.850;2023-11-18T15:18:04;7.00;75.60
38606;DHT22;24365;48.446;8.850;2023-11-18T15:23:05;7.00;76.30
38606;DHT22;24365;48.446;8.850;2023-11-18T15:28:08;6.90;74.90
38606;DHT22;24365;48.446;8.850;2023-11-18T15:33:12;6.90;75.00
38606;DHT22;24365;48.446;8.850;2023-11-18T15:38:16;6.90;75.90
38606;DHT22;24365;48.446;8.850;2023-11-18T15:43:20;6.90;75.20
38606;DHT22;24365;48.446;8.850;2023-11-18T15:48:22;6.90;74.40
38606;DHT22;24365;48.446;8.850;2023-11-18T15:53:23;6.90;75.10
38606;DHT22;24365;48.446;8.850;2023-11-18T15:58:25;6.80;75.50
38606;DHT22;24365;48.446;8.850;2023-11-18T16:03:27;6.80;76.70
38606;DHT22;24365;48.446;8.850;2023-11-18T16:08:28;6.80;76.30
38606;DHT22;24365;48.446;8.850;2023-11-18T16:13:28;6.60;76.70
38606;DHT22;24365;48.446;8.850;2023-11-18T16:18:29;6.60;76.90
38606;DHT22;24365;48.446;8.850;2023-11-18T16:23:30;6.50;77.00
38606;DHT22;24365;48.446;8.850;2023-11-18T16:28:35;6.50;78.20
38606;DHT22;24365;48.446;8.850;2023-11-18T16:33:37;6.50;77.70
38606;DHT22;24365;48.446;8.850;2023-11-18T16:38:37;6.50;78.00
38606;DHT22;24365;48.446;8.850;2023-11-18T16:43:38;6.50;78.10
38606;DHT22;24365;48.446;8.850;2023-11-18T16:48:40;6.40;78.00
38606;DHT22;24365;48.446;8.850;2023-11-18T16:53:41;6.40;78.30
38606;DHT22;24365;48.446;8.850;2023-11-18T16:58:42;6.40;79.00
38606;DHT22;24365;48.446;8.850;2023-11-18T17:03:43;6.30;78.90
38606;DHT22;24365;48.446;8.850;2023-11-18T17:08:44;6.40;78.20
38606;DHT22;24365;48.446;8.850;2023-11-18T17:13:45;6.40;77.70
38606;DHT22;24365;48.446;8.850;2023-11-18T17:18:46;6.40;75.80
38606;DHT22;24365;48.446;8.850;2023-11-18T17:23:49;6.50;75.00
38606;DHT22;24365;48.446;8.850;2023-11-18T17:28:51;6.50;75.30
38606;DHT22;24365;48.446;8.850;2023-11-18T17:33:52;6.40;75.10
38606;DHT22;24365;48.446;8.850;2023-11-18T17:38:53;6.40;75.40
38606;DHT22;24365;48.446;8.850;2023-11-18T17:43:54;6.40;73.80
38606;DHT22;24365;48.446;8.850;2023-11-18T17:48:55;6.40;75.50
38606;DHT22;24365;48.446;8.850;2023-11-18T17:53:56;6.40;74.50
38606;DHT22;24365;48.446;8.850;2023-11-18T17:58:57;6.40;74.10
38606;DHT22;24365;48.446;8.850;2023-11-18T18:03:58;6.50;72.70
38606;DHT22;24365;48.446;8.850;2023-11-18T18:08:59;6.50;72.60
38606;DHT22;24365;48.446;8.850;2023-11-18T18:14:00;6.50;73.20
38606;DHT22;24365;48.446;8.850;2023-11-18T18:19:01;6.50;73.70
38606;DHT22;24365;48.446;8.850;2023-11-18T18:24:03;6.40;73.30
38606;DHT22;24365;48.446;8.850;2023-11-18T18:29:04;6.40;75.10
38606;DHT22;24365;48.446;8.850;2023-11-18T18:34:06;6.50;73.20
38606;DHT22;24365;48.446;8.850;2023-11-18T18:39:09;6.50;73.30
38606;DHT22;24365;48.446;8.850;2023-11-18T18:44:10;6.50;73.80
38606;DHT22;24365;48.446;8.850;2023-11-18T18:49:11;6.50;73.70
38606;DHT22;24365;48.446;8.850;2023-11-18T18:54:12;6.50;73.10
38606;DHT22;24365;48.446;8.850;2023-11-18T18:59:12;6.50;73.20
38606;DHT22;24365;48.446;8.850;2023-11-18T19:04:13;6.50;74.40
38606;DHT22;24365;48.446;8.850;2023-11-18T19:09:14;6.50;74.90
38606;DHT22;24365;48.446;8.850;2023-11-18T19:14:18;6.50;75.00
38606;DHT22;24365;48.446;8.850;2023-11-18T19:19:19;6.60;74.90
38606;DHT22;24365;48.446;8.850;2023-11-18T19:24:21;6.70;74.10
38606;DHT22;24365;48.446;8.850;2023-11-18T19:29:22;6.70;72.60
38606;DHT22;24365;48.446;8.850;2023-11-18T19:34:24;6.70;73.20
38606;DHT22;24365;48.446;8.850;2023-11-18T19:39:25;6.70;73.40
38606;DHT22;24365;48.446;8.850;2023-11-18T19:44:27;6.70;74.20
38606;DHT22;24365;48.446;8.850;2023-11-18T19:49:31;6.80;73.60
38606;DHT22;24365;48.446;8.850;2023-11-18T19:54:34;6.70;74.00
38606;DHT22;24365;48.446;8.850;2023-11-18T19:59:35;6.70;74.30
38606;DHT22;24365;48.446;8.850;2023-11-18T20:04:36;6.70;74.50
38606;DHT22;24365;48.446;8.850;2023-11-18T20:09:40;6.70;75.20
38606;DHT22;24365;48.446;8.850;2023-11-18T20:14:42;6.80;75.10
38606;DHT22;24365;48.446;8.850;2023-11-18T20:19:43;6.90;74.50
38606;DHT22;24365;48.446;8.850;2023-11-18T20:24:44;7.00;74.30
38606;DHT22;24365;48.446;8.850;2023-11-18T20:29:45;6.90;75.00
38606;DHT22;24365;48.446;8.850;2023-11-18T20:34:46;7.00;75.80
38606;DHT22;24365;48.446;8.850;2023-11-18T20:39:47;6.90;77.50
38606;DHT22;24365;48.446;8.850;2023-11-18T20:44:50;6.90;78.60
38606;DHT22;24365;48.446;8.850;2023-11-18T20:49:50;6.90;78.90
38606;DHT22;24365;48.446;8.850;2023-11-18T20:54:51;7.00;79.60
38606;DHT22;24365;48.446;8.850;2023-11-18T20:59:52;7.10;79.30
38606;DHT22;24365;48.446;8.850;2023-11-18T21:04:53;7.00;81.30
38606;DHT22;24365;48.446;8.850;2023-11-18T21:09:54;6.90;83.00
38606;DHT22;24365;48.446;8.850;2023-11-18T21:14:57;6.80;83.60
38606;DHT22;24365;48.446;8.850;2023-11-18T21:19:57;6.80;85.00
38606;DHT22;24365;48.446;8.850;2023-11-18T21:24:58;6.70;86.40
38606;DHT22;24365;48.446;8.850;2023-11-18T21:30:02;6.70;86.70
38606;DHT22;24365;48.446;8.850;2023-11-18T21:35:03;6.70;86.60
38606;DHT22;24365;48.446;8.850;2023-11-18T21:40:05;6.70;87.70
38606;DHT22;24365;48.446;8.850;2023-11-18T21:45:07;6.60;88.30
38606;DHT22;24365;48.446;8.850;2023-11-18T21:50:08;6.60;88.30
38606;DHT22;24365;48.446;8.850;2023-11-18T21:55:09;6.60;88.30
38606;DHT22;24365;48.446;8.850;2023-11-18T22:00:10;6.60;88.90
38606;DHT22;24365;48.446;8.850;2023-11-18T22:05:17;6.60;89.20
38606;DHT22;24365;48.446;8.850;2023-11-18T22:10:18;6.60;89.70
38606;DHT22;24365;48.446;8.850;2023-11-18T22:15:21;6.60;89.90
38606;DHT22;24365;48.446;8.850;2023-11-18T22:20:22;6.60;90.10
38606;DHT22;24365;48.446;8.850;2023-11-18T22:25:25;6.60;90.60
38606;DHT22;24365;48.446;8.850;2023-11-18T22:30:27;6.60;90.40
38606;DHT22;24365;48.446;8.850;2023-11-18T22:35:29;6.60;90.50
38606;DHT22;24365;48.446;8.850;2023-11-18T22:40:31;6.60;91.00
38606;DHT22;24365;48.446;8.850;2023-11-18T22:45:32;6.60;91.30
38606;DHT22;24365;48.446;8.850;2023-11-18T22:50:33;6.70;91.10
38606;DHT22;24365;48.446;8.850;2023-11-18T22:55:38;6.70;91.20
38606;DHT22;24365;48.446;8.850;2023-11-18T23:00:39;6.80;91.00
38606;DHT22;24365;48.446;8.850;2023-11-18T23:05:51;6.90;91.70
38606;DHT22;24365;48.446;8.850;2023-11-18T23:10:54;7.10;91.40
38606;DHT22;24365;48.446;8.850;2023-11-18T23:15:55;7.20;91.40
38606;DHT22;24365;48.446;8.850;2023-11-18T23:20:59;7.30;91.40
38606;DHT22;24365;48.446;8.850;2023-11-18T23:25:59;7.30;91.70
38606;DHT22;24365;48.446;8.850;2023-11-18T23:31:06;7.40;91.30
38606;DHT22;24365;48.446;8.850;2023-11-18T23:36:14;7.40;90.80
38606;DHT22;24365;48.446;8.850;2023-11-18T23:41:15;7.40;91.30
38606;DHT22;24365;48.446;8.850;2023-11-18T23:46:16;7.30;92.00
38606;DHT22;24365;48.446;8.850;2023-11-18T23:51:17;7.30;92.90
38606;DHT22;24365;48.446;8.850;2023-11-18T23:56:19;7.30;93.50
